sensor_id;sensor_type;location;lat;lon;timestamp;P1;durP1;ratioP1;P2;durP2;ratioP2
8213;SDS011;4148;47.974;7.824;2024-03-25T00:00:09;5.07;;;2.13;;
8213;SDS011;4148;47.974;7.824;2024-03-25T00:02:37;3.50;;;1.50;;
8213;SDS011;4148;47.974;7.824;2024-03-25T00:05:05;4.53;;;2.37;;
8213;SDS011;4148;47.974;7.824;2024-03-25T00:07:34;2.73;;;2.00;;
8213;SDS011;4148;47.974;7.824;2024-03-25T00:10:00;3.90;;;1.90;;
8213;SDS011;4148;47.974;7.824;2024-03-25T00:12:27;6.00;;;2.30;;
8213;SDS011;4148;47.974;7.824;2024-03-25T00:14:54;3.07;;;1.73;;
8213;SDS011;4148;47.974;7.824;2024-03-25T00:17:21;4.90;;;2.00;;
8213;SDS011;4148;47.974;7.824;2024-03-25T00:19:47;4.80;;;1.93;;
8213;SDS011;4148;47.974;7.824;2024-03-25T00:22:17;8.97;;;1.73;;
8213;SDS011;4148;47.974;7.824;2024-03-25T00:24:44;4.67;;;1.73;;
8213;SDS011;4148;47.974;7.824;2024-03-25T00:27:11;3.07;;;2.10;;
8213;SDS011;4148;47.974;7.824;2024-03-25T00:29:37;3.83;;;2.00;;
8213;SDS011;4148;47.974;7.824;2024-03-25T00:32:05;4.03;;;2.17;;
8213;SDS011;4148;47.974;7.824;2024-03-25T00:34:31;3.57;;;2.13;;
8213;SDS011;4148;47.974;7.824;2024-03-25T00:36:58;4.00;;;2.17;;
8213;SDS011;4148;47.974;7.824;2024-03-25T00:39:26;5.67;;;2.23;;
8213;SDS011;4148;47.974;7.824;2024-03-25T00:41:54;7.77;;;2.07;;
8213;SDS011;4148;47.974;7.824;2024-03-25T00:44:20;3.50;;;2.10;;
8213;SDS011;4148;47.974;7.824;2024-03-25T00:46:47;3.97;;;1.90;;
8213;SDS011;4148;47.974;7.824;2024-03-25T00:49:13;4.10;;;2.23;;
8213;SDS011;4148;47.974;7.824;2024-03-25T00:51:40;3.90;;;1.90;;
8213;SDS011;4148;47.974;7.824;2024-03-25T00:54:06;3.40;;;1.80;;
8213;SDS011;4148;47.974;7.824;2024-03-25T00:56:34;3.30;;;2.00;;
8213;SDS011;4148;47.974;7.824;2024-03-25T00:59:00;3.27;;;1.90;;
8213;SDS011;4148;47.974;7.824;2024-03-25T01:01:28;2.40;;;1.70;;
8213;SDS011;4148;47.974;7.824;2024-03-25T01:03:55;3.10;;;1.60;;
8213;SDS011;4148;47.974;7.824;2024-03-25T01:06:22;3.37;;;2.17;;
8213;SDS011;4148;47.974;7.824;2024-03-25T01:08:49;3.83;;;2.00;;
8213;SDS011;4148;47.974;7.824;2024-03-25T01:11:16;4.43;;;1.90;;
8213;SDS011;4148;47.974;7.824;2024-03-25T01:13:44;4.47;;;1.93;;
8213;SDS011;4148;47.974;7.824;2024-03-25T01:16:11;7.07;;;2.20;;
8213;SDS011;4148;47.974;7.824;2024-03-25T01:18:37;8.10;;;1.97;;
8213;SDS011;4148;47.974;7.824;2024-03-25T01:21:04;4.53;;;1.90;;
8213;SDS011;4148;47.974;7.824;2024-03-25T01:23:31;4.23;;;2.00;;
8213;SDS011;4148;47.974;7.824;2024-03-25T01:25:58;4.87;;;2.00;;
8213;SDS011;4148;47.974;7.824;2024-03-25T01:28:24;3.47;;;2.37;;
8213;SDS011;4148;47.974;7.824;2024-03-25T01:30:52;2.60;;;1.80;;
8213;SDS011;4148;47.974;7.824;2024-03-25T01:33:19;6.77;;;2.37;;
8213;SDS011;4148;47.974;7.824;2024-03-25T01:35:46;4.63;;;2.33;;
8213;SDS011;4148;47.974;7.824;2024-03-25T01:38:12;2.90;;;2.00;;
8213;SDS011;4148;47.974;7.824;2024-03-25T01:40:39;3.10;;;1.50;;
8213;SDS011;4148;47.974;7.824;2024-03-25T01:43:05;4.53;;;2.20;;
8213;SDS011;4148;47.974;7.824;2024-03-25T01:45:32;4.43;;;2.57;;
8213;SDS011;4148;47.974;7.824;2024-03-25T01:48:01;5.90;;;2.20;;
8213;SDS011;4148;47.974;7.824;2024-03-25T01:50:29;3.80;;;2.43;;
8213;SDS011;4148;47.974;7.824;2024-03-25T01:52:56;3.23;;;2.10;;
8213;SDS011;4148;47.974;7.824;2024-03-25T01:55:24;5.20;;;2.23;;
8213;SDS011;4148;47.974;7.824;2024-03-25T01:57:52;6.30;;;2.00;;
8213;SDS011;4148;47.974;7.824;2024-03-25T02:00:19;5.77;;;2.20;;
8213;SDS011;4148;47.974;7.824;2024-03-25T02:02:47;5.53;;;2.50;;
8213;SDS011;4148;47.974;7.824;2024-03-25T02:05:16;6.43;;;2.47;;
8213;SDS011;4148;47.974;7.824;2024-03-25T02:07:42;3.30;;;1.87;;
8213;SDS011;4148;47.974;7.824;2024-03-25T02:10:10;3.40;;;2.03;;
8213;SDS011;4148;47.974;7.824;2024-03-25T02:12:40;3.50;;;2.13;;
8213;SDS011;4148;47.974;7.824;2024-03-25T02:15:08;4.43;;;2.23;;
8213;SDS011;4148;47.974;7.824;2024-03-25T02:17:34;4.97;;;2.23;;
8213;SDS011;4148;47.974;7.824;2024-03-25T02:20:01;2.90;;;1.97;;
8213;SDS011;4148;47.974;7.824;2024-03-25T02:22:29;5.20;;;2.17;;
8213;SDS011;4148;47.974;7.824;2024-03-25T02:24:57;2.97;;;2.13;;
8213;SDS011;4148;47.974;7.824;2024-03-25T02:27:24;3.83;;;2.00;;
8213;SDS011;4148;47.974;7.824;2024-03-25T02:29:53;2.80;;;2.20;;
8213;SDS011;4148;47.974;7.824;2024-03-25T02:32:19;4.13;;;2.60;;
8213;SDS011;4148;47.974;7.824;2024-03-25T02:34:49;6.53;;;2.63;;
8213;SDS011;4148;47.974;7.824;2024-03-25T02:37:16;3.07;;;2.00;;
8213;SDS011;4148;47.974;7.824;2024-03-25T02:39:43;2.80;;;2.00;;
8213;SDS011;4148;47.974;7.824;2024-03-25T02:42:10;3.20;;;2.07;;
8213;SDS011;4148;47.974;7.824;2024-03-25T02:44:38;2.83;;;2.23;;
8213;SDS011;4148;47.974;7.824;2024-03-25T02:47:08;6.47;;;2.10;;
8213;SDS011;4148;47.974;7.824;2024-03-25T02:49:37;4.20;;;2.23;;
8213;SDS011;4148;47.974;7.824;2024-03-25T02:52:03;3.27;;;2.40;;
8213;SDS011;4148;47.974;7.824;2024-03-25T02:54:30;4.07;;;2.03;;
8213;SDS011;4148;47.974;7.824;2024-03-25T02:56:56;3.30;;;2.37;;
8213;SDS011;4148;47.974;7.824;2024-03-25T02:59:23;4.00;;;2.10;;
8213;SDS011;4148;47.974;7.824;2024-03-25T03:01:50;4.13;;;2.70;;
8213;SDS011;4148;47.974;7.824;2024-03-25T03:04:17;3.23;;;2.07;;
8213;SDS011;4148;47.974;7.824;2024-03-25T03:06:43;3.00;;;1.90;;
8213;SDS011;4148;47.974;7.824;2024-03-25T03:09:10;2.87;;;1.83;;
8213;SDS011;4148;47.974;7.824;2024-03-25T03:11:36;4.10;;;2.13;;
8213;SDS011;4148;47.974;7.824;2024-03-25T03:14:03;2.63;;;2.00;;
8213;SDS011;4148;47.974;7.824;2024-03-25T03:16:29;3.70;;;2.90;;
8213;SDS011;4148;47.974;7.824;2024-03-25T03:18:58;3.50;;;2.30;;
8213;SDS011;4148;47.974;7.824;2024-03-25T03:21:24;4.10;;;2.50;;
8213;SDS011;4148;47.974;7.824;2024-03-25T03:23:51;4.03;;;2.10;;
8213;SDS011;4148;47.974;7.824;2024-03-25T03:26:17;4.60;;;2.10;;
8213;SDS011;4148;47.974;7.824;2024-03-25T03:28:44;3.83;;;2.20;;
8213;SDS011;4148;47.974;7.824;2024-03-25T03:31:10;3.50;;;2.40;;
8213;SDS011;4148;47.974;7.824;2024-03-25T03:33:37;5.20;;;2.47;;
8213;SDS011;4148;47.974;7.824;2024-03-25T03:36:05;5.03;;;2.23;;
8213;SDS011;4148;47.974;7.824;2024-03-25T03:38:32;5.77;;;3.13;;
8213;SDS011;4148;47.974;7.824;2024-03-25T03:40:58;2.83;;;2.10;;
8213;SDS011;4148;47.974;7.824;2024-03-25T03:43:26;4.47;;;2.10;;
8213;SDS011;4148;47.974;7.824;2024-03-25T03:45:52;3.37;;;2.13;;
8213;SDS011;4148;47.974;7.824;2024-03-25T03:48:19;3.90;;;2.00;;
8213;SDS011;4148;47.974;7.824;2024-03-25T03:50:45;4.93;;;2.17;;
8213;SDS011;4148;47.974;7.824;2024-03-25T03:53:13;4.27;;;2.20;;
8213;SDS011;4148;47.974;7.824;2024-03-25T03:55:39;5.10;;;2.13;;
8213;SDS011;4148;47.974;7.824;2024-03-25T03:58:06;5.83;;;2.60;;
8213;SDS011;4148;47.974;7.824;2024-03-25T04:00:35;6.67;;;2.80;;
8213;SDS011;4148;47.974;7.824;2024-03-25T04:03:03;4.07;;;2.70;;
8213;SDS011;4148;47.974;7.824;2024-03-25T04:05:29;3.77;;;2.33;;
8213;SDS011;4148;47.974;7.824;2024-03-25T04:07:57;3.20;;;1.83;;
8213;SDS011;4148;47.974;7.824;2024-03-25T04:10:26;4.37;;;2.30;;
8213;SDS011;4148;47.974;7.824;2024-03-25T04:12:54;4.20;;;2.40;;
8213;SDS011;4148;47.974;7.824;2024-03-25T04:15:21;2.37;;;1.90;;
8213;SDS011;4148;47.974;7.824;2024-03-25T04:17:48;3.90;;;2.17;;
8213;SDS011;4148;47.974;7.824;2024-03-25T04:20:14;4.03;;;2.00;;
8213;SDS011;4148;47.974;7.824;2024-03-25T04:22:42;3.70;;;1.97;;
8213;SDS011;4148;47.974;7.824;2024-03-25T04:25:09;3.60;;;2.27;;
8213;SDS011;4148;47.974;7.824;2024-03-25T04:27:38;2.53;;;2.10;;
8213;SDS011;4148;47.974;7.824;2024-03-25T04:30:05;4.40;;;2.53;;
8213;SDS011;4148;47.974;7.824;2024-03-25T04:32:33;3.50;;;3.20;;
8213;SDS011;4148;47.974;7.824;2024-03-25T04:35:00;5.90;;;2.33;;
8213;SDS011;4148;47.974;7.824;2024-03-25T04:37:28;3.30;;;1.70;;
8213;SDS011;4148;47.974;7.824;2024-03-25T04:39:55;4.30;;;2.10;;
8213;SDS011;4148;47.974;7.824;2024-03-25T04:42:21;3.93;;;2.27;;
8213;SDS011;4148;47.974;7.824;2024-03-25T04:44:49;7.80;;;2.13;;
8213;SDS011;4148;47.974;7.824;2024-03-25T04:47:15;5.10;;;2.10;;
8213;SDS011;4148;47.974;7.824;2024-03-25T04:49:41;3.90;;;2.40;;
8213;SDS011;4148;47.974;7.824;2024-03-25T04:52:07;5.90;;;2.43;;
8213;SDS011;4148;47.974;7.824;2024-03-25T04:54:34;4.67;;;2.17;;
8213;SDS011;4148;47.974;7.824;2024-03-25T04:57:00;5.00;;;2.47;;
8213;SDS011;4148;47.974;7.824;2024-03-25T04:59:26;3.40;;;2.47;;
8213;SDS011;4148;47.974;7.824;2024-03-25T05:01:53;4.63;;;2.20;;
8213;SDS011;4148;47.974;7.824;2024-03-25T05:04:19;7.10;;;2.40;;
8213;SDS011;4148;47.974;7.824;2024-03-25T05:06:45;5.60;;;2.23;;
8213;SDS011;4148;47.974;7.824;2024-03-25T05:09:11;5.83;;;2.00;;
8213;SDS011;4148;47.974;7.824;2024-03-25T05:11:38;10.43;;;2.40;;
8213;SDS011;4148;47.974;7.824;2024-03-25T05:14:04;4.07;;;1.83;;
8213;SDS011;4148;47.974;7.824;2024-03-25T05:16:30;2.80;;;2.10;;
8213;SDS011;4148;47.974;7.824;2024-03-25T05:18:57;2.73;;;1.97;;
8213;SDS011;4148;47.974;7.824;2024-03-25T05:21:23;3.10;;;2.00;;
8213;SDS011;4148;47.974;7.824;2024-03-25T05:23:49;3.13;;;2.00;;
8213;SDS011;4148;47.974;7.824;2024-03-25T05:26:15;4.03;;;2.37;;
8213;SDS011;4148;47.974;7.824;2024-03-25T05:28:41;4.50;;;2.80;;
8213;SDS011;4148;47.974;7.824;2024-03-25T05:31:07;5.10;;;2.03;;
8213;SDS011;4148;47.974;7.824;2024-03-25T05:33:34;3.77;;;2.07;;
8213;SDS011;4148;47.974;7.824;2024-03-25T05:36:02;5.57;;;2.33;;
8213;SDS011;4148;47.974;7.824;2024-03-25T05:38:28;4.20;;;2.40;;
8213;SDS011;4148;47.974;7.824;2024-03-25T05:40:54;8.20;;;1.90;;
8213;SDS011;4148;47.974;7.824;2024-03-25T05:43:21;4.27;;;2.43;;
8213;SDS011;4148;47.974;7.824;2024-03-25T05:45:50;4.30;;;2.07;;
8213;SDS011;4148;47.974;7.824;2024-03-25T05:48:16;3.40;;;2.40;;
8213;SDS011;4148;47.974;7.824;2024-03-25T05:50:42;3.50;;;2.53;;
8213;SDS011;4148;47.974;7.824;2024-03-25T05:53:10;5.63;;;2.43;;
8213;SDS011;4148;47.974;7.824;2024-03-25T05:55:36;3.50;;;2.30;;
8213;SDS011;4148;47.974;7.824;2024-03-25T05:58:02;8.83;;;2.87;;
8213;SDS011;4148;47.974;7.824;2024-03-25T06:00:28;4.70;;;2.70;;
8213;SDS011;4148;47.974;7.824;2024-03-25T06:02:55;5.33;;;2.63;;
8213;SDS011;4148;47.974;7.824;2024-03-25T06:05:21;3.50;;;2.30;;
8213;SDS011;4148;47.974;7.824;2024-03-25T06:07:47;4.47;;;2.67;;
8213;SDS011;4148;47.974;7.824;2024-03-25T06:10:14;4.20;;;2.47;;
8213;SDS011;4148;47.974;7.824;2024-03-25T06:12:40;3.80;;;2.30;;
8213;SDS011;4148;47.974;7.824;2024-03-25T06:15:07;5.47;;;3.10;;
8213;SDS011;4148;47.974;7.824;2024-03-25T06:17:33;7.30;;;2.70;;
8213;SDS011;4148;47.974;7.824;2024-03-25T06:19:59;5.83;;;2.47;;
8213;SDS011;4148;47.974;7.824;2024-03-25T06:22:25;5.07;;;2.70;;
8213;SDS011;4148;47.974;7.824;2024-03-25T06:24:51;4.47;;;3.00;;
8213;SDS011;4148;47.974;7.824;2024-03-25T06:27:19;4.20;;;2.67;;
8213;SDS011;4148;47.974;7.824;2024-03-25T06:29:45;7.10;;;3.60;;
8213;SDS011;4148;47.974;7.824;2024-03-25T06:32:11;4.47;;;2.90;;
8213;SDS011;4148;47.974;7.824;2024-03-25T06:34:55;4.80;;;2.90;;
8213;SDS011;4148;47.974;7.824;2024-03-25T06:37:21;10.60;;;3.37;;
8213;SDS011;4148;47.974;7.824;2024-03-25T06:39:47;3.80;;;2.43;;
8213;SDS011;4148;47.974;7.824;2024-03-25T06:42:13;4.40;;;2.70;;
8213;SDS011;4148;47.974;7.824;2024-03-25T06:44:41;4.43;;;2.70;;
8213;SDS011;4148;47.974;7.824;2024-03-25T06:47:07;3.77;;;2.43;;
8213;SDS011;4148;47.974;7.824;2024-03-25T06:49:33;3.60;;;2.77;;
8213;SDS011;4148;47.974;7.824;2024-03-25T06:51:59;4.30;;;2.90;;
8213;SDS011;4148;47.974;7.824;2024-03-25T06:54:25;2.97;;;2.40;;
8213;SDS011;4148;47.974;7.824;2024-03-25T06:56:51;4.87;;;3.40;;
8213;SDS011;4148;47.974;7.824;2024-03-25T06:59:17;4.30;;;2.97;;
8213;SDS011;4148;47.974;7.824;2024-03-25T07:01:44;14.00;;;2.80;;
8213;SDS011;4148;47.974;7.824;2024-03-25T07:04:10;4.30;;;2.80;;
8213;SDS011;4148;47.974;7.824;2024-03-25T07:06:36;8.70;;;2.60;;
8213;SDS011;4148;47.974;7.824;2024-03-25T07:09:02;5.33;;;2.80;;
8213;SDS011;4148;47.974;7.824;2024-03-25T07:11:28;3.70;;;2.50;;
8213;SDS011;4148;47.974;7.824;2024-03-25T07:13:54;7.20;;;2.60;;
8213;SDS011;4148;47.974;7.824;2024-03-25T07:16:20;3.03;;;2.33;;
8213;SDS011;4148;47.974;7.824;2024-03-25T07:18:48;4.77;;;2.57;;
8213;SDS011;4148;47.974;7.824;2024-03-25T07:21:14;5.10;;;2.57;;
8213;SDS011;4148;47.974;7.824;2024-03-25T07:23:40;10.83;;;3.47;;
8213;SDS011;4148;47.974;7.824;2024-03-25T07:26:06;4.80;;;2.67;;
8213;SDS011;4148;47.974;7.824;2024-03-25T07:28:32;4.87;;;3.27;;
8213;SDS011;4148;47.974;7.824;2024-03-25T07:30:58;10.80;;;4.40;;
8213;SDS011;4148;47.974;7.824;2024-03-25T07:33:24;5.50;;;3.20;;
8213;SDS011;4148;47.974;7.824;2024-03-25T07:35:52;6.83;;;2.97;;
8213;SDS011;4148;47.974;7.824;2024-03-25T07:38:18;4.73;;;2.30;;
8213;SDS011;4148;47.974;7.824;2024-03-25T07:40:44;3.90;;;2.50;;
8213;SDS011;4148;47.974;7.824;2024-03-25T07:43:10;4.27;;;2.40;;
8213;SDS011;4148;47.974;7.824;2024-03-25T07:45:36;6.00;;;2.60;;
8213;SDS011;4148;47.974;7.824;2024-03-25T07:48:02;4.47;;;2.13;;
8213;SDS011;4148;47.974;7.824;2024-03-25T07:50:28;8.10;;;2.70;;
8213;SDS011;4148;47.974;7.824;2024-03-25T07:52:56;6.57;;;2.37;;
8213;SDS011;4148;47.974;7.824;2024-03-25T07:55:22;6.63;;;2.40;;
8213;SDS011;4148;47.974;7.824;2024-03-25T07:57:48;2.80;;;1.90;;
8213;SDS011;4148;47.974;7.824;2024-03-25T08:00:14;3.53;;;2.00;;
8213;SDS011;4148;47.974;7.824;2024-03-25T08:02:40;4.57;;;2.10;;
8213;SDS011;4148;47.974;7.824;2024-03-25T08:05:07;2.90;;;2.03;;
8213;SDS011;4148;47.974;7.824;2024-03-25T08:07:33;4.43;;;2.00;;
8213;SDS011;4148;47.974;7.824;2024-03-25T08:10:00;4.27;;;2.53;;
8213;SDS011;4148;47.974;7.824;2024-03-25T08:12:28;3.87;;;2.33;;
8213;SDS011;4148;47.974;7.824;2024-03-25T08:14:55;7.20;;;2.17;;
8213;SDS011;4148;47.974;7.824;2024-03-25T08:17:21;3.40;;;2.10;;
8213;SDS011;4148;47.974;7.824;2024-03-25T08:19:47;4.70;;;1.93;;
8213;SDS011;4148;47.974;7.824;2024-03-25T08:22:13;3.50;;;2.33;;
8213;SDS011;4148;47.974;7.824;2024-03-25T08:24:39;3.30;;;1.70;;
8213;SDS011;4148;47.974;7.824;2024-03-25T08:27:07;3.80;;;2.10;;
8213;SDS011;4148;47.974;7.824;2024-03-25T08:29:33;5.10;;;1.70;;
8213;SDS011;4148;47.974;7.824;2024-03-25T08:31:59;4.30;;;2.00;;
8213;SDS011;4148;47.974;7.824;2024-03-25T08:34:26;3.40;;;2.10;;
8213;SDS011;4148;47.974;7.824;2024-03-25T08:36:52;3.70;;;1.80;;
8213;SDS011;4148;47.974;7.824;2024-03-25T08:39:18;3.50;;;1.80;;
8213;SDS011;4148;47.974;7.824;2024-03-25T08:41:44;3.67;;;1.83;;
8213;SDS011;4148;47.974;7.824;2024-03-25T08:44:11;4.10;;;2.13;;
8213;SDS011;4148;47.974;7.824;2024-03-25T08:46:37;3.20;;;1.90;;
8213;SDS011;4148;47.974;7.824;2024-03-25T08:49:04;2.43;;;1.73;;
8213;SDS011;4148;47.974;7.824;2024-03-25T08:51:30;2.60;;;1.50;;
8213;SDS011;4148;47.974;7.824;2024-03-25T08:53:56;3.93;;;2.17;;
8213;SDS011;4148;47.974;7.824;2024-03-25T08:56:22;3.70;;;1.83;;
8213;SDS011;4148;47.974;7.824;2024-03-25T08:58:48;2.93;;;1.60;;
8213;SDS011;4148;47.974;7.824;2024-03-25T09:01:16;2.63;;;1.73;;
8213;SDS011;4148;47.974;7.824;2024-03-25T09:03:42;4.07;;;1.93;;
8213;SDS011;4148;47.974;7.824;2024-03-25T09:06:08;2.37;;;1.63;;
8213;SDS011;4148;47.974;7.824;2024-03-25T09:08:34;3.37;;;1.60;;
8213;SDS011;4148;47.974;7.824;2024-03-25T09:11:00;5.93;;;2.10;;
8213;SDS011;4148;47.974;7.824;2024-03-25T09:13:29;2.40;;;2.00;;
8213;SDS011;4148;47.974;7.824;2024-03-25T09:15:55;3.03;;;1.80;;
8213;SDS011;4148;47.974;7.824;2024-03-25T09:18:22;3.17;;;1.60;;
8213;SDS011;4148;47.974;7.824;2024-03-25T09:20:48;3.33;;;1.90;;
8213;SDS011;4148;47.974;7.824;2024-03-25T09:23:15;5.00;;;1.70;;
8213;SDS011;4148;47.974;7.824;2024-03-25T09:25:50;3.07;;;1.50;;
8213;SDS011;4148;47.974;7.824;2024-03-25T09:28:16;1.87;;;1.20;;
8213;SDS011;4148;47.974;7.824;2024-03-25T09:30:43;3.30;;;1.40;;
8213;SDS011;4148;47.974;7.824;2024-03-25T09:33:09;3.10;;;1.47;;
8213;SDS011;4148;47.974;7.824;2024-03-25T09:35:36;3.17;;;1.47;;
8213;SDS011;4148;47.974;7.824;2024-03-25T09:38:02;4.43;;;1.40;;
8213;SDS011;4148;47.974;7.824;2024-03-25T09:40:29;3.50;;;1.80;;
8213;SDS011;4148;47.974;7.824;2024-03-25T09:42:55;2.20;;;1.30;;
8213;SDS011;4148;47.974;7.824;2024-03-25T09:45:23;2.80;;;1.47;;
8213;SDS011;4148;47.974;7.824;2024-03-25T09:47:51;3.50;;;1.40;;
8213;SDS011;4148;47.974;7.824;2024-03-25T09:50:17;3.90;;;1.50;;
8213;SDS011;4148;47.974;7.824;2024-03-25T09:52:46;4.13;;;1.60;;
8213;SDS011;4148;47.974;7.824;2024-03-25T09:55:12;3.47;;;2.00;;
8213;SDS011;4148;47.974;7.824;2024-03-25T09:57:39;3.43;;;1.50;;
8213;SDS011;4148;47.974;7.824;2024-03-25T10:00:05;5.00;;;1.40;;
8213;SDS011;4148;47.974;7.824;2024-03-25T10:02:33;2.00;;;1.40;;
8213;SDS011;4148;47.974;7.824;2024-03-25T10:05:01;2.90;;;1.20;;
8213;SDS011;4148;47.974;7.824;2024-03-25T10:07:27;2.20;;;1.30;;
8213;SDS011;4148;47.974;7.824;2024-03-25T10:09:55;2.63;;;1.47;;
8213;SDS011;4148;47.974;7.824;2024-03-25T10:12:21;2.57;;;1.20;;
8213;SDS011;4148;47.974;7.824;2024-03-25T10:14:47;2.80;;;1.60;;
8213;SDS011;4148;47.974;7.824;2024-03-25T10:17:13;1.70;;;1.20;;
8213;SDS011;4148;47.974;7.824;2024-03-25T10:19:39;3.40;;;1.33;;
8213;SDS011;4148;47.974;7.824;2024-03-25T10:22:06;2.87;;;1.67;;
8213;SDS011;4148;47.974;7.824;2024-03-25T10:24:36;4.20;;;1.50;;
8213;SDS011;4148;47.974;7.824;2024-03-25T10:27:09;4.03;;;2.30;;
8213;SDS011;4148;47.974;7.824;2024-03-25T10:29:36;2.90;;;1.50;;
8213;SDS011;4148;47.974;7.824;2024-03-25T10:32:03;2.10;;;1.70;;
8213;SDS011;4148;47.974;7.824;2024-03-25T10:34:30;2.70;;;1.50;;
8213;SDS011;4148;47.974;7.824;2024-03-25T10:36:57;2.33;;;1.47;;
8213;SDS011;4148;47.974;7.824;2024-03-25T10:39:25;2.30;;;1.37;;
8213;SDS011;4148;47.974;7.824;2024-03-25T10:41:54;7.37;;;1.40;;
8213;SDS011;4148;47.974;7.824;2024-03-25T10:44:23;2.10;;;1.30;;
8213;SDS011;4148;47.974;7.824;2024-03-25T10:46:50;3.00;;;1.30;;
8213;SDS011;4148;47.974;7.824;2024-03-25T10:49:32;4.13;;;1.90;;
8213;SDS011;4148;47.974;7.824;2024-03-25T10:52:00;2.90;;;1.60;;
8213;SDS011;4148;47.974;7.824;2024-03-25T10:54:28;3.73;;;1.30;;
8213;SDS011;4148;47.974;7.824;2024-03-25T10:56:56;2.20;;;1.40;;
8213;SDS011;4148;47.974;7.824;2024-03-25T10:59:25;2.30;;;1.40;;
8213;SDS011;4148;47.974;7.824;2024-03-25T11:01:52;2.50;;;1.30;;
8213;SDS011;4148;47.974;7.824;2024-03-25T11:04:18;3.70;;;1.63;;
8213;SDS011;4148;47.974;7.824;2024-03-25T11:06:45;2.87;;;1.53;;
8213;SDS011;4148;47.974;7.824;2024-03-25T11:09:21;3.27;;;1.90;;
8213;SDS011;4148;47.974;7.824;2024-03-25T11:11:49;2.90;;;1.40;;
8213;SDS011;4148;47.974;7.824;2024-03-25T11:14:15;2.00;;;1.57;;
8213;SDS011;4148;47.974;7.824;2024-03-25T11:16:42;2.40;;;1.53;;
8213;SDS011;4148;47.974;7.824;2024-03-25T11:19:10;2.60;;;1.70;;
8213;SDS011;4148;47.974;7.824;2024-03-25T11:21:36;2.63;;;1.57;;
8213;SDS011;4148;47.974;7.824;2024-03-25T11:24:06;5.47;;;3.67;;
8213;SDS011;4148;47.974;7.824;2024-03-25T11:26:32;5.00;;;2.10;;
8213;SDS011;4148;47.974;7.824;2024-03-25T11:28:58;2.63;;;1.60;;
8213;SDS011;4148;47.974;7.824;2024-03-25T11:31:25;2.40;;;1.37;;
8213;SDS011;4148;47.974;7.824;2024-03-25T11:33:53;3.33;;;1.70;;
8213;SDS011;4148;47.974;7.824;2024-03-25T11:36:19;5.23;;;1.60;;
8213;SDS011;4148;47.974;7.824;2024-03-25T11:38:56;4.03;;;1.53;;
8213;SDS011;4148;47.974;7.824;2024-03-25T11:41:23;2.83;;;1.67;;
8213;SDS011;4148;47.974;7.824;2024-03-25T11:43:49;3.43;;;1.77;;
8213;SDS011;4148;47.974;7.824;2024-03-25T11:46:17;3.53;;;1.57;;
8213;SDS011;4148;47.974;7.824;2024-03-25T11:48:44;3.57;;;1.70;;
8213;SDS011;4148;47.974;7.824;2024-03-25T11:51:14;2.27;;;1.50;;
8213;SDS011;4148;47.974;7.824;2024-03-25T11:53:42;3.50;;;1.60;;
8213;SDS011;4148;47.974;7.824;2024-03-25T11:56:08;5.07;;;1.70;;
8213;SDS011;4148;47.974;7.824;2024-03-25T11:58:36;4.17;;;1.60;;
8213;SDS011;4148;47.974;7.824;2024-03-25T12:01:02;3.40;;;1.70;;
8213;SDS011;4148;47.974;7.824;2024-03-25T12:03:28;2.37;;;1.30;;
8213;SDS011;4148;47.974;7.824;2024-03-25T12:05:55;12.07;;;2.60;;
8213;SDS011;4148;47.974;7.824;2024-03-25T12:08:22;4.80;;;1.87;;
8213;SDS011;4148;47.974;7.824;2024-03-25T12:10:49;4.00;;;1.60;;
8213;SDS011;4148;47.974;7.824;2024-03-25T12:13:34;2.97;;;1.70;;
8213;SDS011;4148;47.974;7.824;2024-03-25T12:16:00;3.30;;;1.50;;
8213;SDS011;4148;47.974;7.824;2024-03-25T12:18:26;2.40;;;1.40;;
8213;SDS011;4148;47.974;7.824;2024-03-25T12:20:52;6.20;;;2.23;;
8213;SDS011;4148;47.974;7.824;2024-03-25T12:23:18;4.30;;;1.60;;
8213;SDS011;4148;47.974;7.824;2024-03-25T12:25:49;3.03;;;1.93;;
8213;SDS011;4148;47.974;7.824;2024-03-25T12:28:15;5.73;;;1.67;;
8213;SDS011;4148;47.974;7.824;2024-03-25T12:30:48;2.60;;;1.80;;
8213;SDS011;4148;47.974;7.824;2024-03-25T12:33:16;6.10;;;2.80;;
8213;SDS011;4148;47.974;7.824;2024-03-25T12:35:44;4.50;;;2.60;;
8213;SDS011;4148;47.974;7.824;2024-03-25T12:38:21;5.50;;;1.40;;
8213;SDS011;4148;47.974;7.824;2024-03-25T12:40:49;5.70;;;1.63;;
8213;SDS011;4148;47.974;7.824;2024-03-25T12:43:15;3.20;;;1.60;;
8213;SDS011;4148;47.974;7.824;2024-03-25T12:45:41;2.63;;;1.37;;
8213;SDS011;4148;47.974;7.824;2024-03-25T12:48:08;5.47;;;1.90;;
8213;SDS011;4148;47.974;7.824;2024-03-25T12:50:34;5.10;;;2.20;;
8213;SDS011;4148;47.974;7.824;2024-03-25T12:53:00;3.50;;;1.60;;
8213;SDS011;4148;47.974;7.824;2024-03-25T12:55:26;3.63;;;1.80;;
8213;SDS011;4148;47.974;7.824;2024-03-25T12:57:53;8.40;;;1.53;;
8213;SDS011;4148;47.974;7.824;2024-03-25T13:00:19;2.87;;;1.57;;
8213;SDS011;4148;47.974;7.824;2024-03-25T13:02:46;2.77;;;1.80;;
8213;SDS011;4148;47.974;7.824;2024-03-25T13:05:12;7.00;;;1.70;;
8213;SDS011;4148;47.974;7.824;2024-03-25T13:07:38;3.90;;;1.70;;
8213;SDS011;4148;47.974;7.824;2024-03-25T13:10:04;3.90;;;2.10;;
8213;SDS011;4148;47.974;7.824;2024-03-25T13:12:31;5.20;;;2.00;;
8213;SDS011;4148;47.974;7.824;2024-03-25T13:14:58;3.30;;;1.37;;
8213;SDS011;4148;47.974;7.824;2024-03-25T13:17:25;2.13;;;1.63;;
8213;SDS011;4148;47.974;7.824;2024-03-25T13:19:51;5.60;;;1.80;;
8213;SDS011;4148;47.974;7.824;2024-03-25T13:22:17;8.07;;;2.10;;
8213;SDS011;4148;47.974;7.824;2024-03-25T13:24:43;3.23;;;1.43;;
8213;SDS011;4148;47.974;7.824;2024-03-25T13:27:09;2.17;;;1.50;;
8213;SDS011;4148;47.974;7.824;2024-03-25T13:29:35;5.47;;;1.80;;
8213;SDS011;4148;47.974;7.824;2024-03-25T13:32:03;6.33;;;1.70;;
8213;SDS011;4148;47.974;7.824;2024-03-25T13:34:29;2.33;;;1.60;;
8213;SDS011;4148;47.974;7.824;2024-03-25T13:36:55;7.20;;;1.80;;
8213;SDS011;4148;47.974;7.824;2024-03-25T13:39:21;2.33;;;1.40;;
8213;SDS011;4148;47.974;7.824;2024-03-25T13:41:47;3.57;;;1.50;;
8213;SDS011;4148;47.974;7.824;2024-03-25T13:44:13;2.03;;;1.60;;
8213;SDS011;4148;47.974;7.824;2024-03-25T13:46:39;2.30;;;1.67;;
8213;SDS011;4148;47.974;7.824;2024-03-25T13:49:06;3.23;;;1.30;;
8213;SDS011;4148;47.974;7.824;2024-03-25T13:51:33;2.00;;;1.47;;
8213;SDS011;4148;47.974;7.824;2024-03-25T13:53:59;2.20;;;1.40;;
8213;SDS011;4148;47.974;7.824;2024-03-25T13:56:25;4.87;;;1.40;;
8213;SDS011;4148;47.974;7.824;2024-03-25T13:58:51;2.10;;;1.37;;
8213;SDS011;4148;47.974;7.824;2024-03-25T14:01:17;3.90;;;1.47;;
8213;SDS011;4148;47.974;7.824;2024-03-25T14:03:43;2.57;;;1.40;;
8213;SDS011;4148;47.974;7.824;2024-03-25T14:06:10;2.57;;;1.30;;
8213;SDS011;4148;47.974;7.824;2024-03-25T14:08:36;10.30;;;1.67;;
8213;SDS011;4148;47.974;7.824;2024-03-25T14:11:02;2.47;;;1.33;;
8213;SDS011;4148;47.974;7.824;2024-03-25T14:13:28;2.70;;;1.67;;
8213;SDS011;4148;47.974;7.824;2024-03-25T14:15:54;1.90;;;1.33;;
8213;SDS011;4148;47.974;7.824;2024-03-25T14:18:20;4.90;;;3.00;;
8213;SDS011;4148;47.974;7.824;2024-03-25T14:20:46;4.20;;;1.80;;
8213;SDS011;4148;47.974;7.824;2024-03-25T14:23:14;1.87;;;1.23;;
8213;SDS011;4148;47.974;7.824;2024-03-25T14:25:40;2.80;;;1.50;;
8213;SDS011;4148;47.974;7.824;2024-03-25T14:28:06;3.27;;;1.20;;
8213;SDS011;4148;47.974;7.824;2024-03-25T14:30:32;2.90;;;1.40;;
8213;SDS011;4148;47.974;7.824;2024-03-25T14:32:58;5.13;;;1.40;;
8213;SDS011;4148;47.974;7.824;2024-03-25T14:35:24;5.53;;;1.30;;
8213;SDS011;4148;47.974;7.824;2024-03-25T14:37:50;4.90;;;2.37;;
8213;SDS011;4148;47.974;7.824;2024-03-25T14:40:17;6.90;;;1.60;;
8213;SDS011;4148;47.974;7.824;2024-03-25T14:42:43;1.83;;;1.30;;
8213;SDS011;4148;47.974;7.824;2024-03-25T14:45:10;1.60;;;1.20;;
8213;SDS011;4148;47.974;7.824;2024-03-25T14:47:36;5.57;;;1.70;;
8213;SDS011;4148;47.974;7.824;2024-03-25T14:50:02;2.63;;;1.40;;
8213;SDS011;4148;47.974;7.824;2024-03-25T14:52:29;2.83;;;1.40;;
8213;SDS011;4148;47.974;7.824;2024-03-25T14:54:55;3.00;;;1.63;;
8213;SDS011;4148;47.974;7.824;2024-03-25T14:57:22;5.17;;;1.40;;
8213;SDS011;4148;47.974;7.824;2024-03-25T14:59:48;3.10;;;1.50;;
8213;SDS011;4148;47.974;7.824;2024-03-25T15:02:15;4.10;;;1.47;;
8213;SDS011;4148;47.974;7.824;2024-03-25T15:04:43;2.20;;;1.43;;
8213;SDS011;4148;47.974;7.824;2024-03-25T15:07:09;2.10;;;1.40;;
8213;SDS011;4148;47.974;7.824;2024-03-25T15:09:35;3.73;;;1.50;;
8213;SDS011;4148;47.974;7.824;2024-03-25T15:12:01;4.70;;;1.60;;